createdAt,value
2022-12-04T00:00:26.718Z,11.45
2022-12-04T00:02:53.249Z,10.52
2022-12-04T00:05:19.792Z,10.60
2022-12-04T00:07:46.441Z,9.83
2022-12-04T00:10:12.966Z,10.40
2022-12-04T00:12:39.556Z,9.88
2022-12-04T00:17:55.403Z,10.57
2022-12-04T00:20:22.040Z,9.02
2022-12-04T00:22:48.612Z,9.88
2022-12-04T00:25:15.316Z,10.13
2022-12-04T00:27:41.964Z,8.95
2022-12-04T00:30:11.463Z,10.60
2022-12-04T00:32:37.952Z,10.73
2022-12-04T00:35:07.101Z,9.35
2022-12-04T00:37:34.496Z,10.43
2022-12-04T00:40:01.117Z,9.68
2022-12-04T00:42:27.583Z,10.77
2022-12-04T00:44:54.068Z,10.65
2022-12-04T00:47:23.415Z,10.00
2022-12-04T00:49:50.192Z,9.57
2022-12-04T00:52:18.173Z,10.20
2022-12-04T00:54:49.837Z,9.48
2022-12-04T00:57:16.617Z,9.65
2022-12-04T00:59:43.103Z,8.40
2022-12-04T01:02:11.773Z,9.50
2022-12-04T01:04:38.255Z,9.52
2022-12-04T01:07:05.527Z,10.13
2022-12-04T01:09:33.748Z,10.37
2022-12-04T01:12:00.236Z,10.05
2022-12-04T01:14:26.853Z,8.77
2022-12-04T01:16:53.424Z,10.75
2022-12-04T01:19:20.228Z,10.47
2022-12-04T01:21:46.740Z,10.48
2022-12-04T01:24:13.256Z,9.18
2022-12-04T01:26:41.100Z,9.27
2022-12-04T01:29:07.843Z,10.13
2022-12-04T01:31:34.577Z,9.50
2022-12-04T01:34:01.110Z,9.98
2022-12-04T01:36:28.538Z,8.95
2022-12-04T01:38:55.787Z,10.13
2022-12-04T01:41:25.199Z,9.07
2022-12-04T01:44:15.338Z,9.70
2022-12-04T01:46:43.441Z,10.30
2022-12-04T01:49:13.163Z,10.63
2022-12-04T01:51:41.994Z,9.50
2022-12-04T01:54:12.073Z,10.48
2022-12-04T01:56:41.370Z,9.98
2022-12-04T01:59:09.264Z,9.77
2022-12-04T02:01:42.615Z,9.25
2022-12-04T02:04:09.281Z,9.48
2022-12-04T02:06:35.817Z,10.68
2022-12-04T02:09:03.350Z,9.82
2022-12-04T02:11:38.285Z,9.57
2022-12-04T02:14:20.024Z,9.77
2022-12-04T02:16:56.453Z,9.43
2022-12-04T02:19:55.740Z,10.45
2022-12-04T02:22:36.895Z,9.93
2022-12-04T02:25:10.415Z,9.60
2022-12-04T02:27:59.394Z,10.50
2022-12-04T02:30:28.941Z,9.27
2022-12-04T02:33:02.326Z,9.10
2022-12-04T02:35:33.296Z,9.85
2022-12-04T02:38:06.215Z,10.07
2022-12-04T02:40:39.824Z,9.88
2022-12-04T02:43:13.789Z,10.10
2022-12-04T02:45:45.294Z,9.63
2022-12-04T02:48:16.963Z,9.32
2022-12-04T02:50:46.192Z,10.30
2022-12-04T02:53:16.381Z,9.40
2022-12-04T02:55:48.432Z,10.98
2022-12-04T02:58:25.405Z,8.55
2022-12-04T03:00:55.812Z,10.20
2022-12-04T03:03:24.989Z,9.73
2022-12-04T03:05:57.625Z,10.63
2022-12-04T03:08:29.498Z,10.32
2022-12-04T03:10:59.288Z,9.53
2022-12-04T03:13:32.916Z,10.20
2022-12-04T03:16:03.907Z,9.85
2022-12-04T03:18:34.115Z,10.00
2022-12-04T03:21:03.840Z,10.23
2022-12-04T03:23:34.184Z,10.15
2022-12-04T03:26:04.741Z,9.55
2022-12-04T03:28:41.624Z,11.05
2022-12-04T03:31:09.757Z,10.45
2022-12-04T03:33:42.063Z,10.88
2022-12-04T03:36:16.624Z,8.73
2022-12-04T03:38:49.258Z,9.70
2022-12-04T03:41:24.582Z,9.60
2022-12-04T03:43:59.094Z,11.15
2022-12-04T03:46:31.272Z,10.38
2022-12-04T03:49:04.501Z,10.80
2022-12-04T03:51:36.444Z,9.93
2022-12-04T03:54:07.609Z,10.45
2022-12-04T03:56:37.619Z,10.18
2022-12-04T03:59:09.094Z,11.38
2022-12-04T04:01:40.992Z,10.65
2022-12-04T04:04:12.436Z,9.45
2022-12-04T04:06:44.141Z,9.27
2022-12-04T04:09:15.114Z,10.50
2022-12-04T04:11:47.305Z,9.30
2022-12-04T04:14:21.940Z,8.90
2022-12-04T04:16:52.804Z,9.75
2022-12-04T04:19:21.572Z,9.20
2022-12-04T04:21:50.367Z,9.07
2022-12-04T04:24:28.033Z,8.70
2022-12-04T04:26:55.749Z,9.30
2022-12-04T04:29:23.645Z,10.68
2022-12-04T04:31:59.573Z,9.57
2022-12-04T04:34:37.897Z,7.67
2022-12-04T04:37:11.797Z,8.77
2022-12-04T04:39:44.317Z,8.90
2022-12-04T04:42:17.687Z,8.43
2022-12-04T04:44:51.272Z,9.53
2022-12-04T04:47:24.072Z,8.77
2022-12-04T04:49:52.578Z,8.77
2022-12-04T04:52:22.222Z,9.02
2022-12-04T04:54:48.725Z,8.13
2022-12-04T04:57:26.088Z,9.35
2022-12-04T04:59:54.172Z,8.07
2022-12-04T05:02:20.990Z,7.80
2022-12-04T05:04:47.640Z,8.63
2022-12-04T05:07:14.085Z,7.93
2022-12-04T05:09:41.488Z,6.85
2022-12-04T05:12:09.092Z,5.82
2022-12-04T05:14:35.597Z,7.13
2022-12-04T05:17:10.745Z,7.53
2022-12-04T05:19:39.112Z,6.40
2022-12-04T05:22:05.578Z,7.35
2022-12-04T05:24:32.109Z,6.97
2022-12-04T05:26:58.835Z,7.70
2022-12-04T05:29:25.276Z,6.72
2022-12-04T05:31:51.731Z,7.55
2022-12-04T05:34:19.563Z,6.83
2022-12-04T05:36:46.018Z,6.55
2022-12-04T05:39:13.364Z,6.90
2022-12-04T05:41:39.847Z,6.13
2022-12-04T05:44:06.357Z,6.37
2022-12-04T05:46:32.970Z,5.93
2022-12-04T05:48:59.544Z,6.65
2022-12-04T05:51:27.550Z,6.03
2022-12-04T05:53:54.459Z,6.53
2022-12-04T05:56:20.992Z,7.22
2022-12-04T05:58:47.651Z,6.53
2022-12-04T06:01:17.732Z,6.97
2022-12-04T06:03:44.528Z,7.28
2022-12-04T06:06:17.503Z,7.55
2022-12-04T06:08:50.348Z,5.75
2022-12-04T06:11:19.325Z,6.68
2022-12-04T06:13:46.542Z,7.13
2022-12-04T06:16:14.619Z,4.85
2022-12-04T06:18:41.598Z,7.03
2022-12-04T06:21:08.920Z,6.70
2022-12-04T06:23:35.883Z,7.23
2022-12-04T06:26:07.068Z,6.55
2022-12-04T06:28:34.725Z,6.93
2022-12-04T06:31:02.010Z,6.45
2022-12-04T06:33:28.751Z,7.87
2022-12-04T06:35:58.716Z,7.32
2022-12-04T06:38:25.391Z,6.88
2022-12-04T06:40:51.857Z,5.95
2022-12-04T06:43:19.669Z,6.45
2022-12-04T06:45:46.298Z,5.07
2022-12-04T06:48:12.809Z,5.85
2022-12-04T06:50:39.426Z,6.25
2022-12-04T06:53:08.464Z,5.28
2022-12-04T06:55:35.273Z,6.33
2022-12-04T06:58:01.817Z,5.00
2022-12-04T07:00:29.639Z,5.78
2022-12-04T07:02:56.243Z,5.78
2022-12-04T07:05:22.698Z,5.47
2022-12-04T07:07:49.189Z,5.47
2022-12-04T07:10:16.054Z,4.63
2022-12-04T07:12:42.674Z,5.13
2022-12-04T07:15:10.229Z,4.53
2022-12-04T07:17:38.046Z,5.47
2022-12-04T07:20:05.725Z,4.30
2022-12-04T07:22:35.199Z,4.63
2022-12-04T07:25:01.821Z,4.20
2022-12-04T07:27:31.702Z,4.80
2022-12-04T07:29:58.582Z,4.47
2022-12-04T07:32:25.103Z,4.97
2022-12-04T07:34:52.973Z,5.35
2022-12-04T07:37:19.505Z,4.68
2022-12-04T07:39:45.959Z,4.28
2022-12-04T07:42:12.576Z,4.35
2022-12-04T07:44:39.008Z,4.57
2022-12-04T07:47:05.627Z,4.78
2022-12-04T07:49:32.168Z,4.90
2022-12-04T07:52:00.299Z,4.78
2022-12-04T07:54:26.761Z,4.38
2022-12-04T07:56:53.253Z,5.27
2022-12-04T07:59:19.770Z,4.40
2022-12-04T08:01:46.308Z,4.10
2022-12-04T08:04:12.957Z,4.20
2022-12-04T08:06:39.856Z,4.70
2022-12-04T08:09:10.223Z,3.73
2022-12-04T08:11:37.394Z,4.40
2022-12-04T08:14:05.575Z,4.50
2022-12-04T08:16:35.215Z,4.45
2022-12-04T08:19:01.779Z,4.72
2022-12-04T08:21:31.239Z,4.17
2022-12-04T08:23:59.751Z,4.43
2022-12-04T08:26:31.983Z,4.90
2022-12-04T08:29:00.799Z,3.80
2022-12-04T08:31:29.570Z,4.50
2022-12-04T08:33:58.535Z,4.13
2022-12-04T08:36:25.516Z,4.97
2022-12-04T08:38:52.210Z,4.78
2022-12-04T08:41:20.194Z,4.97
2022-12-04T08:43:51.162Z,4.50
2022-12-04T08:46:18.724Z,3.95
2022-12-04T08:48:46.462Z,4.43
2022-12-04T08:51:14.865Z,4.65
2022-12-04T08:53:41.588Z,3.92
2022-12-04T08:56:08.613Z,4.67
2022-12-04T08:58:35.123Z,4.53
2022-12-04T09:01:07.716Z,4.20
2022-12-04T09:03:34.696Z,4.35
2022-12-04T09:06:02.578Z,4.70
2022-12-04T09:08:29.331Z,4.93
2022-12-04T09:11:01.838Z,4.72
2022-12-04T09:13:28.359Z,5.05
2022-12-04T09:15:55.042Z,4.53
2022-12-04T09:18:22.933Z,4.37
2022-12-04T09:20:59.054Z,4.88
2022-12-04T09:23:26.299Z,4.57
2022-12-04T09:25:52.813Z,4.60
2022-12-04T09:28:19.672Z,4.90
2022-12-04T09:30:55.467Z,4.60
2022-12-04T09:33:23.352Z,4.13
2022-12-04T09:35:50.165Z,4.78
2022-12-04T09:38:16.647Z,4.90
2022-12-04T09:40:50.532Z,4.87
2022-12-04T09:43:28.159Z,4.85
2022-12-04T09:46:02.342Z,5.18
2022-12-04T09:48:33.334Z,4.97
2022-12-04T09:51:02.342Z,4.55
2022-12-04T09:56:19.832Z,5.00
2022-12-04T09:58:52.539Z,4.82
2022-12-04T10:01:24.089Z,5.43
2022-12-04T10:03:54.235Z,5.15
2022-12-04T10:06:24.224Z,5.80
2022-12-04T10:08:58.662Z,5.47
2022-12-04T10:11:36.765Z,5.57
2022-12-04T10:14:14.361Z,4.65
2022-12-04T10:16:56.380Z,4.75
2022-12-04T10:19:32.466Z,4.87
2022-12-04T10:22:10.424Z,3.95
2022-12-04T10:24:43.654Z,5.10
2022-12-04T10:27:14.993Z,5.63
2022-12-04T10:29:43.639Z,5.13
2022-12-04T10:32:19.916Z,5.03
2022-12-04T10:34:50.391Z,5.60
2022-12-04T10:37:16.900Z,4.60
2022-12-04T10:39:50.168Z,5.18
2022-12-04T10:42:26.456Z,4.95
2022-12-04T10:44:53.205Z,5.50
2022-12-04T10:47:20.703Z,5.65
2022-12-04T10:49:48.924Z,5.70
2022-12-04T10:52:15.690Z,5.20
2022-12-04T10:54:46.126Z,4.45
2022-12-04T10:57:13.165Z,5.53
2022-12-04T10:59:48.082Z,5.13
2022-12-04T11:02:20.934Z,5.72
2022-12-04T11:04:55.445Z,5.53
2022-12-04T11:07:24.432Z,4.90
2022-12-04T11:09:59.524Z,5.17
2022-12-04T11:12:26.266Z,4.85
2022-12-04T11:15:11.817Z,5.20
2022-12-04T11:17:38.332Z,4.57
2022-12-04T11:23:25.911Z,5.47
2022-12-04T11:25:58.223Z,6.20
2022-12-04T11:28:45.564Z,5.15
2022-12-04T11:31:18.519Z,5.20
2022-12-04T11:33:51.443Z,4.88
2022-12-04T11:36:21.602Z,4.97
2022-12-04T11:38:50.774Z,5.00
2022-12-04T11:41:25.961Z,5.30
2022-12-04T11:43:56.700Z,5.30
2022-12-04T11:46:28.866Z,5.63
2022-12-04T11:48:55.537Z,5.40
2022-12-04T11:51:32.541Z,5.25
2022-12-04T11:54:06.969Z,5.60
2022-12-04T11:56:38.551Z,5.03
2022-12-04T11:59:29.075Z,5.30
2022-12-04T12:02:03.109Z,4.87
2022-12-04T12:04:45.613Z,4.97
2022-12-04T12:07:25.700Z,5.18
2022-12-04T12:10:01.592Z,4.63
2022-12-04T12:12:40.801Z,5.75
2022-12-04T12:15:21.887Z,5.20
2022-12-04T12:17:59.150Z,5.22
2022-12-04T12:20:32.879Z,5.13
2022-12-04T12:23:11.619Z,5.78
2022-12-04T12:25:52.294Z,5.95
2022-12-04T12:28:37.720Z,4.17
2022-12-04T12:31:32.169Z,5.28
2022-12-04T12:34:05.024Z,6.05
2022-12-04T12:36:41.289Z,5.53
2022-12-04T12:39:16.108Z,5.72
2022-12-04T12:41:50.279Z,5.87
2022-12-04T12:44:21.494Z,5.55
2022-12-04T12:46:54.195Z,5.53
2022-12-04T12:49:28.587Z,5.90
2022-12-04T12:52:01.294Z,5.22
2022-12-04T12:54:36.669Z,5.80
2022-12-04T12:57:11.292Z,5.20
2022-12-04T12:59:41.950Z,5.90
2022-12-04T13:02:17.877Z,5.85
2022-12-04T13:04:48.863Z,5.38
2022-12-04T13:07:31.760Z,4.87
2022-12-04T13:10:04.645Z,5.70
2022-12-04T13:12:39.488Z,5.70
2022-12-04T13:15:06.942Z,5.50
2022-12-04T13:17:38.843Z,6.07
2022-12-04T13:20:14.080Z,5.10
2022-12-04T13:22:51.714Z,5.50
2022-12-04T13:25:36.375Z,5.38
2022-12-04T13:28:17.576Z,5.53
2022-12-04T13:30:48.513Z,6.13
2022-12-04T13:33:49.830Z,5.80
2022-12-04T13:36:49.222Z,5.53
2022-12-04T13:39:36.115Z,5.28
2022-12-04T13:42:26.147Z,5.28
2022-12-04T13:44:57.096Z,6.40
2022-12-04T13:47:30.953Z,5.80
2022-12-04T13:50:25.186Z,5.85
2022-12-04T13:52:51.722Z,6.50
2022-12-04T13:55:27.198Z,5.88
2022-12-04T13:57:55.773Z,7.10
2022-12-04T14:00:30.945Z,6.27
2022-12-04T14:03:00.032Z,6.55
2022-12-04T14:05:30.501Z,7.95
2022-12-04T14:08:07.178Z,6.75
2022-12-04T14:10:36.293Z,7.40
2022-12-04T14:13:06.039Z,7.43
2022-12-04T14:15:36.991Z,7.47
2022-12-04T14:18:16.105Z,7.78
2022-12-04T14:20:44.413Z,8.05
2022-12-04T14:23:28.084Z,7.55
2022-12-04T14:25:55.568Z,7.63
2022-12-04T14:28:27.710Z,8.25
2022-12-04T14:31:19.865Z,8.30
2022-12-04T14:33:49.481Z,7.63
2022-12-04T14:36:19.282Z,7.65
2022-12-04T14:38:48.839Z,8.10
2022-12-04T14:41:23.802Z,8.45
2022-12-04T14:43:50.558Z,8.35
2022-12-04T14:46:22.554Z,7.65
2022-12-04T14:48:58.977Z,8.05
2022-12-04T14:51:34.329Z,7.43
2022-12-04T14:54:09.217Z,7.60
2022-12-04T14:56:57.882Z,6.45
2022-12-04T14:59:33.701Z,7.50
2022-12-04T15:02:01.795Z,7.13
2022-12-04T15:04:32.645Z,6.70
2022-12-04T15:07:00.617Z,7.47
2022-12-04T15:09:28.367Z,7.47
2022-12-04T15:11:58.414Z,8.00
2022-12-04T15:14:25.121Z,6.30
2022-12-04T15:17:03.598Z,8.52
2022-12-04T15:19:30.186Z,8.93
2022-12-04T15:21:59.567Z,8.63
2022-12-04T15:24:26.158Z,7.82
2022-12-04T15:26:54.256Z,8.60
2022-12-04T15:29:25.515Z,7.95
2022-12-04T15:31:54.757Z,7.22
2022-12-04T15:34:25.740Z,7.32
2022-12-04T15:36:59.644Z,7.97
2022-12-04T15:39:28.248Z,7.18
2022-12-04T15:42:05.125Z,7.65
2022-12-04T15:44:33.125Z,8.82
2022-12-04T15:47:02.404Z,9.80
2022-12-04T15:49:31.397Z,7.70
2022-12-04T15:52:06.801Z,7.25
2022-12-04T15:54:50.375Z,7.18
2022-12-04T15:57:28.737Z,7.20
2022-12-04T15:59:56.735Z,7.57
2022-12-04T16:02:25.534Z,7.30
2022-12-04T16:04:53.752Z,8.20
2022-12-04T16:07:22.488Z,7.97
2022-12-04T16:10:01.094Z,7.43
2022-12-04T16:12:31.779Z,7.55
2022-12-04T16:14:58.635Z,8.30
2022-12-04T16:17:30.325Z,7.75
2022-12-04T16:19:59.297Z,7.85
2022-12-04T16:22:26.562Z,7.75
2022-12-04T16:24:54.017Z,8.32
2022-12-04T16:27:22.830Z,7.82
2022-12-04T16:29:49.463Z,8.05
2022-12-04T16:32:18.353Z,8.10
2022-12-04T16:35:15.193Z,7.93
2022-12-04T16:37:41.779Z,8.77
2022-12-04T16:40:09.819Z,8.65
2022-12-04T16:42:36.357Z,7.50
2022-12-04T16:45:03.307Z,8.63
2022-12-04T16:47:31.938Z,8.52
2022-12-04T16:49:59.754Z,7.87
2022-12-04T16:52:26.324Z,7.50
2022-12-04T16:54:52.783Z,8.23
2022-12-04T16:57:19.319Z,7.60
2022-12-04T16:59:45.887Z,8.13
2022-12-04T17:02:16.038Z,7.93
2022-12-04T17:04:42.754Z,7.57
2022-12-04T17:07:10.809Z,7.60
2022-12-04T17:09:37.338Z,6.80
2022-12-04T17:12:04.261Z,7.63
2022-12-04T17:14:32.481Z,7.47
2022-12-04T17:17:02.321Z,8.20
2022-12-04T17:19:29.360Z,7.47
2022-12-04T17:21:55.874Z,7.22
2022-12-04T17:24:23.754Z,7.65
2022-12-04T17:26:50.263Z,7.40
2022-12-04T17:29:16.780Z,7.97
2022-12-04T17:31:45.423Z,7.72
2022-12-04T17:34:12.020Z,7.60
2022-12-04T17:36:38.521Z,7.17
2022-12-04T17:39:05.038Z,7.30
2022-12-04T17:41:33.061Z,7.40
2022-12-04T17:44:00.063Z,7.65
2022-12-04T17:46:26.794Z,6.38
2022-12-04T17:48:56.339Z,7.57
2022-12-04T17:51:24.296Z,8.80
2022-12-04T17:53:51.364Z,9.35
2022-12-04T17:56:20.433Z,8.60
2022-12-04T17:58:49.782Z,9.18
2022-12-04T18:01:19.438Z,9.10
2022-12-04T18:03:49.702Z,7.10
2022-12-04T18:06:18.548Z,9.65
2022-12-04T18:08:49.754Z,8.93
2022-12-04T18:11:16.930Z,8.57
2022-12-04T18:13:43.526Z,6.23
2022-12-04T18:16:11.971Z,7.93
2022-12-04T18:18:38.844Z,8.50
2022-12-04T18:21:07.791Z,8.15
2022-12-04T18:23:34.297Z,6.85
2022-12-04T18:26:00.921Z,7.70
2022-12-04T18:28:29.722Z,6.70
2022-12-04T18:30:56.353Z,6.68
2022-12-04T18:33:24.500Z,8.07
2022-12-04T18:35:54.338Z,7.22
2022-12-04T18:38:21.084Z,7.17
2022-12-04T18:40:47.624Z,7.72
2022-12-04T18:43:14.170Z,7.00
2022-12-04T18:45:40.809Z,7.03
2022-12-04T18:48:07.432Z,7.07
2022-12-04T18:50:35.561Z,8.07
2022-12-04T18:53:02.157Z,7.57
2022-12-04T18:55:28.720Z,7.93
2022-12-04T18:57:55.270Z,7.63
2022-12-04T19:00:22.120Z,8.93
2022-12-04T19:02:48.679Z,8.77
2022-12-04T19:05:15.433Z,7.93
2022-12-04T19:08:04.860Z,8.00
2022-12-04T19:11:32.211Z,8.57
2022-12-04T19:14:23.882Z,9.73
2022-12-04T19:17:25.232Z,10.40
2022-12-04T19:20:13.150Z,9.70
2022-12-04T19:26:35.199Z,9.52
2022-12-04T19:29:30.335Z,10.20
2022-12-04T19:35:35.980Z,9.75
2022-12-04T19:38:50.663Z,10.93
2022-12-04T19:59:04.147Z,11.85
2022-12-04T20:12:37.971Z,10.93
2022-12-04T20:15:57.413Z,12.20
2022-12-04T20:18:59.238Z,12.00
2022-12-04T20:21:29.983Z,11.07
2022-12-04T20:24:09.218Z,10.02
2022-12-04T20:26:51.779Z,15.40
2022-12-04T20:29:38.522Z,13.02
2022-12-04T20:35:27.322Z,13.50
2022-12-04T20:38:09.243Z,11.15
2022-12-04T20:40:44.665Z,11.57
2022-12-04T20:43:17.721Z,13.35
2022-12-04T20:48:50.537Z,12.98
2022-12-04T20:51:29.095Z,12.90
2022-12-04T20:54:04.057Z,10.63
2022-12-04T20:56:48.281Z,13.03
2022-12-04T20:59:38.263Z,14.10
2022-12-04T21:02:20.771Z,13.65
2022-12-04T21:04:54.053Z,12.10
2022-12-04T21:07:23.948Z,11.48
2022-12-04T21:09:53.837Z,12.67
2022-12-04T21:12:32.984Z,13.80
2022-12-04T21:15:20.336Z,12.85
2022-12-04T21:17:58.890Z,12.70
2022-12-04T21:20:34.138Z,12.77
2022-12-04T21:23:05.232Z,11.50
2022-12-04T21:25:41.074Z,12.35
2022-12-04T21:28:41.775Z,14.90
2022-12-04T21:31:13.141Z,14.57
2022-12-04T21:33:44.398Z,12.02
2022-12-04T21:36:22.192Z,12.97
2022-12-04T21:39:05.630Z,12.35
2022-12-04T21:41:46.854Z,11.93
2022-12-04T21:44:15.625Z,11.10
2022-12-04T21:47:03.136Z,12.02
2022-12-04T21:49:35.064Z,11.67
2022-12-04T21:52:07.548Z,10.90
2022-12-04T21:54:39.325Z,11.93
2022-12-04T21:57:09.776Z,11.90
2022-12-04T21:59:40.996Z,11.77
2022-12-04T22:02:09.443Z,11.23
2022-12-04T22:04:40.897Z,11.43
2022-12-04T22:07:10.348Z,11.48
2022-12-04T22:09:54.758Z,10.95
2022-12-04T22:12:49.053Z,10.93
2022-12-04T22:15:27.999Z,9.52
2022-12-04T22:17:58.460Z,9.68
2022-12-04T22:20:24.986Z,10.75
2022-12-04T22:22:52.796Z,10.48
2022-12-04T22:25:19.303Z,9.90
2022-12-04T22:27:45.784Z,10.63
2022-12-04T22:30:13.205Z,9.95
2022-12-04T22:32:39.696Z,10.13
2022-12-04T22:35:06.603Z,9.98
2022-12-04T22:37:33.344Z,10.20
2022-12-04T22:40:01.352Z,8.25
2022-12-04T22:42:27.895Z,9.45
2022-12-04T22:44:54.375Z,9.80
2022-12-04T22:47:20.840Z,10.32
2022-12-04T22:49:47.384Z,9.03
2022-12-04T22:52:13.969Z,9.55
2022-12-04T22:54:40.455Z,9.85
2022-12-04T22:57:08.566Z,9.73
2022-12-04T22:59:35.103Z,10.27
2022-12-04T23:02:01.809Z,8.97
2022-12-04T23:04:29.062Z,9.32
2022-12-04T23:06:55.671Z,9.50
2022-12-04T23:09:22.158Z,10.02
2022-12-04T23:11:50.645Z,9.88
2022-12-04T23:14:18.531Z,9.77
2022-12-04T23:16:45.109Z,9.60
2022-12-04T23:19:13.935Z,10.35
2022-12-04T23:21:40.996Z,11.32
2022-12-04T23:24:08.021Z,10.25
2022-12-04T23:26:36.269Z,8.40
2022-12-04T23:29:05.336Z,10.68
2022-12-04T23:31:38.228Z,8.70
2022-12-04T23:34:05.698Z,9.50
2022-12-04T23:36:32.563Z,9.90
2022-12-04T23:38:59.253Z,11.03
2022-12-04T23:41:27.539Z,9.73
2022-12-04T23:43:54.827Z,9.68
2022-12-04T23:46:23.590Z,11.32
2022-12-04T23:48:51.695Z,11.43
2022-12-04T23:51:19.892Z,11.37
2022-12-04T23:53:47.426Z,10.63
2022-12-04T23:56:16.257Z,11.35
2022-12-04T23:58:44.266Z,10.73
